Time;durP1;ratioP1;P1;durP2;ratioP2;P2;SDS_P1;SDS_P2;PMS_P1;PMS_P2;Temp;Humidity;BMP_temperature;BMP_pressure;BME280_temperature;BME280_humidity;BME280_pressure;Samples;Min_cycle;Max_cycle;Signal;HPM_P1;HPM_P2
2023/10/26 00:01:45;;;;;;;58.25;33.17;;;;;;;;;;10478136;28;20047;-80
2023/10/26 00:06:46;;;;;;;64.60;34.20;;;;;;;;;;10476957;28;20036;-80
2023/10/26 00:11:49;;;;;;;78.70;35.80;;;;;;;;;;10484207;28;20566;-80
2023/10/26 00:16:50;;;;;;;67.00;35.93;;;;;;;;;;10489570;28;20047;-81
2023/10/26 00:21:53;;;;;;;47.57;29.20;;;;;;;;;;10491077;28;20493;-81
2023/10/26 00:26:54;;;;;;;49.33;30.13;;;;;;;;;;10490327;28;20020;-80
2023/10/26 00:31:55;;;;;;;73.17;38.53;;;;;;;;;;10490873;28;20463;-80
2023/10/26 00:36:56;;;;;;;123.40;47.23;;;;;;;;;;10477120;28;20057;-80
2023/10/26 00:41:57;;;;;;;104.50;43.50;;;;;;;;;;10491544;28;20033;-81
2023/10/26 00:46:58;;;;;;;75.83;40.93;;;;;;;;;;10482472;28;20081;-80
2023/10/26 00:52:02;;;;;;;74.93;41.07;;;;;;;;;;10490916;28;20024;-80
2023/10/26 00:57:03;;;;;;;74.30;40.03;;;;;;;;;;10487567;28;20474;-80
2023/10/26 01:02:05;;;;;;;59.67;34.57;;;;;;;;;;10490815;28;20024;-80
2023/10/26 01:07:06;;;;;;;46.03;28.80;;;;;;;;;;10491246;28;20388;-81
2023/10/26 01:12:07;;;;;;;71.80;42.23;;;;;;;;;;10484563;28;20021;-81
2023/10/26 01:17:08;;;;;;;77.97;42.20;;;;;;;;;;10478934;28;20052;-80
2023/10/26 01:22:09;;;;;;;66.47;39.92;;;;;;;;;;10488637;28;20399;-80
2023/10/26 01:27:10;;;;;;;65.32;39.55;;;;;;;;;;10487555;28;20591;-80
2023/10/26 01:32:11;;;;;;;54.60;33.17;;;;;;;;;;10479722;28;20111;-81
2023/10/26 01:37:12;;;;;;;60.97;38.40;;;;;;;;;;10488269;28;20049;-80
2023/10/26 01:42:13;;;;;;;63.35;36.67;;;;;;;;;;10481018;28;20024;-80
2023/10/26 01:47:14;;;;;;;68.88;39.78;;;;;;;;;;10505853;22;20051;-80
2023/10/26 01:52:15;;;;;;;68.50;40.90;;;;;;;;;;10471012;28;20025;-79
2023/10/26 01:57:16;;;;;;;75.32;39.75;;;;;;;;;;10480283;28;20132;-81
2023/10/26 02:02:17;;;;;;;49.42;32.00;;;;;;;;;;10486501;28;20016;-81
2023/10/26 02:07:18;;;;;;;62.47;34.95;;;;;;;;;;10487905;28;20052;-80
2023/10/26 02:12:20;;;;;;;57.08;35.28;;;;;;;;;;10479192;28;20531;-81
2023/10/26 02:17:21;;;;;;;57.00;35.03;;;;;;;;;;10468350;28;20071;-80
2023/10/26 02:22:22;;;;;;;54.87;31.07;;;;;;;;;;10486805;28;20024;-82
2023/10/26 02:27:23;;;;;;;83.95;38.60;;;;;;;;;;10481842;28;20031;-80
2023/10/26 02:32:24;;;;;;;51.70;32.23;;;;;;;;;;10486157;28;20039;-81
2023/10/26 02:37:26;;;;;;;55.95;31.67;;;;;;;;;;10485118;28;20032;-80
2023/10/26 02:42:26;;;;;;;56.10;29.67;;;;;;;;;;10443479;22;20446;-81
2023/10/26 02:47:28;;;;;;;43.20;24.70;;;;;;;;;;10394438;28;20025;-81
2023/10/26 02:52:28;;;;;;;50.23;28.80;;;;;;;;;;10400538;28;20025;-80
2023/10/26 02:57:29;;;;;;;65.70;33.00;;;;;;;;;;10384386;28;20029;-80
2023/10/26 03:02:31;;;;;;;47.87;27.23;;;;;;;;;;10374989;28;20038;-81
2023/10/26 03:07:32;;;;;;;54.67;31.23;;;;;;;;;;10372387;28;20451;-80
2023/10/26 03:12:33;;;;;;;79.87;46.97;;;;;;;;;;10395441;28;20038;-83
2023/10/26 03:17:34;;;;;;;41.13;26.30;;;;;;;;;;10383990;28;20041;-78
2023/10/26 03:22:35;;;;;;;64.73;41.00;;;;;;;;;;10390766;28;20037;-81
2023/10/26 03:27:36;;;;;;;35.92;23.85;;;;;;;;;;10375869;28;20086;-82
2023/10/26 03:32:37;;;;;;;59.63;37.83;;;;;;;;;;10368651;28;20053;-81
2023/10/26 03:37:38;;;;;;;57.97;34.03;;;;;;;;;;10333986;28;20467;-82
2023/10/26 03:42:45;;;;;;;51.15;31.17;;;;;;;;;;10321333;28;20089;-82
2023/10/26 03:47:46;;;;;;;58.37;36.13;;;;;;;;;;10331255;28;20482;-82
2023/10/26 03:52:47;;;;;;;67.75;36.97;;;;;;;;;;10360857;28;20038;-81
2023/10/26 03:57:48;;;;;;;82.97;49.60;;;;;;;;;;10349559;28;20030;-82
2023/10/26 04:02:49;;;;;;;80.97;49.77;;;;;;;;;;10333693;28;20469;-84
2023/10/26 04:07:50;;;;;;;81.25;50.65;;;;;;;;;;10334840;28;20097;-81
2023/10/26 04:12:51;;;;;;;81.97;50.83;;;;;;;;;;10344744;28;20037;-81
2023/10/26 04:18:00;;;;;;;75.82;43.03;;;;;;;;;;10353388;28;20030;-83
2023/10/26 04:23:01;;;;;;;62.88;39.15;;;;;;;;;;10333969;28;20100;-81
2023/10/26 04:28:03;;;;;;;61.72;38.90;;;;;;;;;;10334355;28;20031;-82
2023/10/26 04:33:04;;;;;;;64.63;41.50;;;;;;;;;;10347173;28;20033;-83
2023/10/26 04:38:05;;;;;;;56.97;35.50;;;;;;;;;;10334594;28;20045;-80
2023/10/26 04:43:06;;;;;;;63.00;38.13;;;;;;;;;;10327259;28;20756;-83
2023/10/26 04:48:07;;;;;;;52.55;34.00;;;;;;;;;;10340197;28;20482;-81
2023/10/26 04:53:09;;;;;;;58.37;36.87;;;;;;;;;;10307208;28;20049;-80
2023/10/26 04:58:10;;;;;;;60.72;35.35;;;;;;;;;;10328476;28;20145;-81
2023/10/26 05:03:11;;;;;;;60.70;35.63;;;;;;;;;;10326100;28;20034;-81
2023/10/26 05:08:12;;;;;;;49.50;31.57;;;;;;;;;;10326276;28;20037;-80
2023/10/26 05:13:13;;;;;;;56.87;35.00;;;;;;;;;;10326298;28;20510;-81
2023/10/26 05:18:14;;;;;;;45.35;30.45;;;;;;;;;;10310114;28;20109;-82
2023/10/26 05:23:15;;;;;;;44.97;28.30;;;;;;;;;;10332753;28;20042;-79
2023/10/26 05:28:16;;;;;;;48.07;30.43;;;;;;;;;;10330256;28;20038;-81
2023/10/26 05:33:17;;;;;;;47.60;28.30;;;;;;;;;;10334138;28;20057;-81
2023/10/26 05:38:19;;;;;;;40.83;27.57;;;;;;;;;;10332635;28;20033;-81
2023/10/26 05:43:20;;;;;;;40.40;26.75;;;;;;;;;;10321263;28;20081;-80
2023/10/26 05:48:23;;;;;;;40.55;26.98;;;;;;;;;;10326027;28;20069;-83
2023/10/26 05:53:24;;;;;;;39.40;25.90;;;;;;;;;;10325552;28;20342;-80
2023/10/26 05:58:26;;;;;;;43.08;26.55;;;;;;;;;;10326594;28;20042;-83
2023/10/26 06:03:27;;;;;;;40.10;25.63;;;;;;;;;;10346480;28;20037;-79
2023/10/26 06:08:28;;;;;;;46.10;28.40;;;;;;;;;;10333210;28;20042;-83
2023/10/26 06:13:29;;;;;;;44.30;28.10;;;;;;;;;;10314832;28;20046;-83
2023/10/26 06:18:32;;;;;;;49.83;29.52;;;;;;;;;;10322755;28;20549;-80
2023/10/26 06:23:33;;;;;;;46.13;28.48;;;;;;;;;;10323828;28;20431;-82
2023/10/26 06:28:34;;;;;;;49.63;30.58;;;;;;;;;;10307889;28;20136;-81
2023/10/26 06:33:35;;;;;;;50.65;31.23;;;;;;;;;;10333204;28;20486;-81
2023/10/26 06:38:44;;;;;;;52.80;33.08;;;;;;;;;;10327567;28;20034;-84
2023/10/26 06:43:45;;;;;;;51.53;32.05;;;;;;;;;;10331251;28;20066;-81
2023/10/26 06:48:47;;;;;;;48.38;30.88;;;;;;;;;;10336309;28;20113;-83
2023/10/26 06:53:48;;;;;;;43.35;28.33;;;;;;;;;;10332157;28;20035;-81
2023/10/26 06:58:49;;;;;;;45.08;28.13;;;;;;;;;;10304041;28;20042;-84
2023/10/26 07:03:51;;;;;;;40.55;27.58;;;;;;;;;;10335765;28;20062;-82
2023/10/26 07:08:52;;;;;;;38.45;24.88;;;;;;;;;;10332063;28;20033;-80
2023/10/26 07:13:53;;;;;;;37.70;27.10;;;;;;;;;;10313125;28;20046;-81
2023/10/26 07:18:54;;;;;;;40.55;26.52;;;;;;;;;;10338605;28;20113;-80
2023/10/26 07:23:55;;;;;;;42.85;29.15;;;;;;;;;;10319941;28;20072;-81
2023/10/26 07:28:57;;;;;;;35.20;25.25;;;;;;;;;;10308379;28;20022;-83
2023/10/26 07:33:58;;;;;;;33.88;22.17;;;;;;;;;;10331832;28;20917;-84
2023/10/26 07:38:59;;;;;;;25.05;16.77;;;;;;;;;;10328637;28;20042;-81
2023/10/26 07:44:00;;;;;;;25.05;13.90;;;;;;;;;;10320014;28;20058;-81
2023/10/26 07:49:03;;;;;;;18.50;11.73;;;;;;;;;;10331765;28;20113;-80
2023/10/26 07:54:04;;;;;;;19.45;11.95;;;;;;;;;;10319650;28;20390;-81
2023/10/26 07:59:05;;;;;;;19.23;11.73;;;;;;;;;;10307822;28;20038;-84
2023/10/26 08:04:06;;;;;;;17.45;10.05;;;;;;;;;;10320518;28;20553;-82
2023/10/26 08:09:07;;;;;;;13.05;8.15;;;;;;;;;;10322298;28;20069;-80
2023/10/26 08:14:09;;;;;;;12.93;7.40;;;;;;;;;;10327134;28;20477;-82
2023/10/26 08:19:10;;;;;;;9.65;5.90;;;;;;;;;;10320676;28;20486;-82
2023/10/26 08:24:11;;;;;;;9.48;5.50;;;;;;;;;;10329943;28;20034;-80
2023/10/26 08:29:12;;;;;;;7.53;3.92;;;;;;;;;;10309801;28;20421;-83
2023/10/26 08:34:13;;;;;;;8.57;3.65;;;;;;;;;;10325771;28;20393;-82
2023/10/26 08:39:14;;;;;;;4.40;2.83;;;;;;;;;;10322461;28;20104;-81
2023/10/26 08:44:17;;;;;;;4.50;2.92;;;;;;;;;;10329765;28;20120;-81
2023/10/26 08:49:18;;;;;;;4.60;3.00;;;;;;;;;;10341522;28;20098;-81
2023/10/26 08:54:19;;;;;;;5.43;3.17;;;;;;;;;;10336405;28;20060;-85
2023/10/26 08:59:23;;;;;;;6.55;3.40;;;;;;;;;;10326266;28;20112;-81
2023/10/26 09:04:24;;;;;;;6.55;2.90;;;;;;;;;;10325297;28;20034;-81
2023/10/26 09:09:25;;;;;;;6.43;2.72;;;;;;;;;;10339709;28;20410;-82
2023/10/26 09:14:26;;;;;;;6.13;2.53;;;;;;;;;;10335550;28;20034;-80
2023/10/26 09:19:37;;;;;;;3.92;2.67;;;;;;;;;;10313613;28;20099;-83
2023/10/26 09:24:38;;;;;;;4.30;2.17;;;;;;;;;;10335460;28;20046;-81
2023/10/26 09:29:39;;;;;;;3.63;2.70;;;;;;;;;;10345106;28;20032;-81
2023/10/26 09:34:47;;;;;;;4.03;2.28;;;;;;;;;;10337542;28;20141;-84
2023/10/26 09:39:48;;;;;;;4.57;2.55;;;;;;;;;;10339850;28;20030;-82
2023/10/26 09:44:51;;;;;;;4.43;2.50;;;;;;;;;;10332630;28;20054;-82
2023/10/26 09:49:52;;;;;;;3.50;2.65;;;;;;;;;;10342846;28;20062;-78
2023/10/26 09:54:55;;;;;;;4.22;2.42;;;;;;;;;;10328152;28;20061;-82
2023/10/26 09:59:58;;;;;;;5.72;3.55;;;;;;;;;;10337688;28;20485;-80
2023/10/26 10:04:59;;;;;;;3.67;2.08;;;;;;;;;;10331019;28;20037;-82
2023/10/26 10:10:04;;;;;;;3.70;1.95;;;;;;;;;;10325171;28;20497;-81
2023/10/26 10:15:07;;;;;;;4.45;2.08;;;;;;;;;;10329696;28;20046;-82
2023/10/26 10:20:14;;;;;;;4.05;2.17;;;;;;;;;;10328320;28;20030;-85
2023/10/26 10:25:17;;;;;;;3.03;2.45;;;;;;;;;;10333156;28;20785;-85
2023/10/26 10:30:19;;;;;;;3.80;2.50;;;;;;;;;;10309281;28;20064;-81
2023/10/26 10:35:26;;;;;;;6.45;3.00;;;;;;;;;;10318979;28;20884;-83
2023/10/26 10:40:27;;;;;;;7.68;4.05;;;;;;;;;;10315159;28;20038;-78
2023/10/26 10:45:35;;;;;;;5.47;3.08;;;;;;;;;;10323414;28;20061;-82
2023/10/26 10:50:43;;;;;;;4.53;1.88;;;;;;;;;;10339440;28;20121;-83
2023/10/26 10:55:44;;;;;;;4.15;1.92;;;;;;;;;;10331734;28;20045;-81
2023/10/26 11:00:48;;;;;;;3.83;1.90;;;;;;;;;;10308743;28;20394;-81
2023/10/26 11:05:49;;;;;;;4.18;2.58;;;;;;;;;;10323706;28;20032;-82
2023/10/26 11:10:51;;;;;;;7.28;2.40;;;;;;;;;;10307103;28;20036;-82
2023/10/26 11:15:52;;;;;;;3.95;1.80;;;;;;;;;;10321475;28;20138;-81
2023/10/26 11:20:53;;;;;;;2.65;1.50;;;;;;;;;;10325867;28;20034;-82
2023/10/26 11:25:54;;;;;;;3.35;1.83;;;;;;;;;;10330503;28;20022;-79
2023/10/26 11:30:57;;;;;;;6.10;2.28;;;;;;;;;;10297048;28;20030;-82
2023/10/26 11:35:58;;;;;;;3.95;2.35;;;;;;;;;;10329588;28;20478;-81
2023/10/26 11:40:59;;;;;;;3.00;2.00;;;;;;;;;;10309651;28;20042;-82
2023/10/26 11:46:03;;;;;;;3.75;1.60;;;;;;;;;;10327681;28;20080;-80
2023/10/26 11:51:06;;;;;;;3.90;1.73;;;;;;;;;;10323810;28;20445;-80
2023/10/26 11:56:07;;;;;;;2.22;1.65;;;;;;;;;;10321218;28;20054;-80
2023/10/26 12:01:08;;;;;;;3.65;2.15;;;;;;;;;;10316067;28;20481;-81
2023/10/26 12:06:11;;;;;;;3.95;1.80;;;;;;;;;;10326817;28;20030;-81
2023/10/26 12:11:12;;;;;;;4.85;2.08;;;;;;;;;;10343116;28;20045;-84
2023/10/26 12:16:13;;;;;;;3.15;1.80;;;;;;;;;;10344259;28;20038;-82
2023/10/26 12:21:14;;;;;;;3.30;1.83;;;;;;;;;;10321272;28;20029;-80
2023/10/26 12:26:15;;;;;;;4.85;2.28;;;;;;;;;;10397391;22;20061;-82
2023/10/26 12:31:16;;;;;;;4.03;1.88;;;;;;;;;;10410316;28;20731;-80
2023/10/26 12:36:17;;;;;;;4.55;1.80;;;;;;;;;;10404953;28;20041;-80
2023/10/26 12:41:24;;;;;;;2.25;1.80;;;;;;;;;;10395962;28;20033;-81
2023/10/26 12:46:25;;;;;;;3.03;1.90;;;;;;;;;;10386333;28;20041;-83
2023/10/26 12:51:26;;;;;;;4.15;2.05;;;;;;;;;;10365918;28;20026;-79
2023/10/26 12:56:27;;;;;;;3.85;2.40;;;;;;;;;;10385157;28;20439;-80
2023/10/26 13:01:28;;;;;;;7.32;4.00;;;;;;;;;;10406697;28;20036;-81
2023/10/26 13:06:29;;;;;;;4.32;2.70;;;;;;;;;;10414522;28;20560;-81
2023/10/26 13:11:30;;;;;;;8.48;5.72;;;;;;;;;;10405577;28;20033;-84
2023/10/26 13:16:31;;;;;;;6.20;4.15;;;;;;;;;;10405293;28;20376;-82
2023/10/26 13:21:32;;;;;;;7.53;3.40;;;;;;;;;;10387874;28;20144;-81
2023/10/26 13:26:33;;;;;;;7.43;3.63;;;;;;;;;;10405854;28;20202;-81
2023/10/26 13:31:34;;;;;;;6.20;3.47;;;;;;;;;;10406619;28;20083;-80
2023/10/26 13:36:35;;;;;;;8.57;4.63;;;;;;;;;;10406806;28;20033;-81
2023/10/26 13:41:36;;;;;;;11.63;5.47;;;;;;;;;;10389069;28;20081;-81
2023/10/26 13:46:45;;;;;;;8.73;4.60;;;;;;;;;;10406091;28;20057;-81
2023/10/26 13:51:47;;;;;;;11.77;4.22;;;;;;;;;;10406528;28;20051;-82
2023/10/26 13:56:48;;;;;;;8.93;4.70;;;;;;;;;;10405277;28;20037;-81
2023/10/26 14:01:49;;;;;;;10.45;5.50;;;;;;;;;;10406445;28;20032;-83
2023/10/26 14:06:50;;;;;;;8.55;4.32;;;;;;;;;;10413697;28;20037;-82
2023/10/26 14:11:51;;;;;;;11.77;5.00;;;;;;;;;;10387729;28;20029;-80
2023/10/26 14:16:52;;;;;;;8.60;5.82;;;;;;;;;;10401258;28;20048;-81
2023/10/26 14:21:53;;;;;;;9.75;6.18;;;;;;;;;;10416046;28;20492;-81
2023/10/26 14:27:01;;;;;;;9.88;5.75;;;;;;;;;;10421983;28;20073;-80
2023/10/26 14:32:02;;;;;;;16.45;8.15;;;;;;;;;;10386589;28;20183;-80
2023/10/26 14:37:03;;;;;;;15.30;8.93;;;;;;;;;;10416179;28;20519;-80
2023/10/26 14:42:04;;;;;;;20.83;10.98;;;;;;;;;;10399282;28;20029;-81
2023/10/26 14:47:06;;;;;;;18.65;8.20;;;;;;;;;;10383655;28;20504;-81
2023/10/26 14:52:06;;;;;;;29.73;15.80;;;;;;;;;;10405407;28;20929;-81
2023/10/26 14:57:08;;;;;;;15.40;8.65;;;;;;;;;;10410481;28;20154;-82
2023/10/26 15:02:09;;;;;;;14.00;7.80;;;;;;;;;;10395134;28;20036;-82
2023/10/26 15:07:13;;;;;;;31.10;14.05;;;;;;;;;;10398588;28;20053;-81
2023/10/26 15:12:14;;;;;;;34.42;17.90;;;;;;;;;;10397451;28;20088;-82
2023/10/26 15:17:16;;;;;;;55.40;36.40;;;;;;;;;;10399566;28;20040;-81
2023/10/26 15:22:17;;;;;;;35.63;21.88;;;;;;;;;;10404905;28;20113;-81
2023/10/26 15:27:25;;;;;;;28.63;15.93;;;;;;;;;;10395352;28;20552;-82
2023/10/26 15:32:27;;;;;;;26.77;15.20;;;;;;;;;;10403512;28;20029;-87
2023/10/26 15:37:28;;;;;;;28.77;15.95;;;;;;;;;;10398281;28;20477;-84
2023/10/26 15:42:30;;;;;;;61.67;28.45;;;;;;;;;;10394125;28;20463;-82
2023/10/26 15:47:31;;;;;;;74.13;34.72;;;;;;;;;;10412532;28;20148;-83
2023/10/26 15:52:32;;;;;;;61.92;28.33;;;;;;;;;;10422716;28;20037;-84
2023/10/26 15:57:33;;;;;;;62.50;29.38;;;;;;;;;;10399237;28;20477;-82
2023/10/26 16:02:34;;;;;;;43.70;22.98;;;;;;;;;;10409988;28;20370;-81
2023/10/26 16:07:36;;;;;;;52.63;29.35;;;;;;;;;;10410733;28;20038;-83
2023/10/26 16:12:40;;;;;;;63.13;36.63;;;;;;;;;;10413668;28;20041;-84
2023/10/26 16:17:41;;;;;;;36.25;21.27;;;;;;;;;;10418136;28;20037;-82
2023/10/26 16:22:42;;;;;;;50.10;30.02;;;;;;;;;;10407403;28;20024;-82
2023/10/26 16:27:50;;;;;;;68.75;36.67;;;;;;;;;;10404330;28;20084;-84
2023/10/26 16:32:51;;;;;;;59.83;33.10;;;;;;;;;;10404390;28;20048;-83
2023/10/26 16:37:54;;;;;;;49.75;29.95;;;;;;;;;;10408021;28;20030;-86
2023/10/26 16:42:55;;;;;;;55.58;31.23;;;;;;;;;;10403120;28;20029;-83
2023/10/26 16:48:02;;;;;;;40.33;23.42;;;;;;;;;;10411352;28;20112;-82
2023/10/26 16:53:10;;;;;;;53.53;28.70;;;;;;;;;;10420220;28;20113;-85
2023/10/26 16:58:11;;;;;;;50.90;26.25;;;;;;;;;;10417009;28;20036;-85
2023/10/26 17:03:12;;;;;;;48.83;27.52;;;;;;;;;;10407218;28;20544;-82
2023/10/26 17:08:13;;;;;;;52.58;28.77;;;;;;;;;;10402686;28;20034;-85
2023/10/26 17:13:15;;;;;;;99.00;56.03;;;;;;;;;;10408909;28;20030;-84
2023/10/26 17:18:16;;;;;;;81.45;42.97;;;;;;;;;;10413373;28;20109;-83
2023/10/26 17:23:17;;;;;;;105.35;60.70;;;;;;;;;;10411417;28;20067;-82
2023/10/26 17:28:18;;;;;;;127.88;68.80;;;;;;;;;;10405122;28;20050;-84
2023/10/26 17:33:19;;;;;;;145.48;75.13;;;;;;;;;;10398920;28;20167;-81
2023/10/26 17:38:21;;;;;;;76.18;43.53;;;;;;;;;;10404247;28;20083;-84
2023/10/26 17:43:22;;;;;;;142.93;73.07;;;;;;;;;;10437555;28;20508;-80
2023/10/26 17:48:23;;;;;;;80.30;40.50;;;;;;;;;;10418794;28;20029;-81
2023/10/26 17:53:24;;;;;;;136.60;64.68;;;;;;;;;;10419478;28;20537;-84
2023/10/26 17:58:25;;;;;;;74.45;38.03;;;;;;;;;;10407907;28;20124;-82
2023/10/26 18:03:26;;;;;;;84.50;46.50;;;;;;;;;;10406133;28;20021;-81
2023/10/26 18:08:44;;;;;;;87.63;45.70;;;;;;;;;;10407747;28;20037;-82
2023/10/26 18:13:45;;;;;;;67.35;38.63;;;;;;;;;;10413395;28;20045;-80
2023/10/26 18:18:45;;;;;;;62.35;33.78;;;;;;;;;;10403881;28;20052;-80
2023/10/26 18:23:47;;;;;;;59.85;33.05;;;;;;;;;;10402645;28;20563;-80
2023/10/26 18:28:48;;;;;;;57.90;29.83;;;;;;;;;;10402182;28;20092;-81
2023/10/26 18:33:50;;;;;;;51.85;29.73;;;;;;;;;;10403905;28;20041;-80
2023/10/26 18:38:51;;;;;;;69.45;37.17;;;;;;;;;;10415973;28;20445;-79
2023/10/26 18:43:56;;;;;;;67.38;37.45;;;;;;;;;;10404208;28;20379;-81
2023/10/26 18:48:57;;;;;;;87.63;48.93;;;;;;;;;;10398351;28;20039;-82
2023/10/26 18:53:58;;;;;;;100.75;53.53;;;;;;;;;;10392438;28;20042;-81
2023/10/26 18:58:59;;;;;;;79.53;43.83;;;;;;;;;;10401601;28;20041;-82
2023/10/26 19:04:00;;;;;;;67.53;37.17;;;;;;;;;;10404396;28;20034;-83
2023/10/26 19:09:01;;;;;;;68.45;39.78;;;;;;;;;;10407351;28;20033;-80
2023/10/26 19:14:03;;;;;;;71.95;41.92;;;;;;;;;;10418288;28;20041;-82
2023/10/26 19:19:04;;;;;;;76.82;44.70;;;;;;;;;;10402248;28;20072;-82
2023/10/26 19:24:05;;;;;;;101.38;58.75;;;;;;;;;;10397613;28;20041;-83
2023/10/26 19:29:06;;;;;;;104.68;61.22;;;;;;;;;;10404950;28;20053;-80
2023/10/26 19:34:07;;;;;;;124.95;69.35;;;;;;;;;;10406591;28;20044;-82
2023/10/26 19:39:11;;;;;;;89.18;50.20;;;;;;;;;;10396446;28;20117;-81
2023/10/26 19:44:14;;;;;;;99.63;52.95;;;;;;;;;;10402780;28;20381;-83
2023/10/26 19:49:15;;;;;;;80.40;43.42;;;;;;;;;;10389644;28;20029;-80
2023/10/26 19:54:18;;;;;;;87.88;50.22;;;;;;;;;;10401753;28;20037;-82
2023/10/26 19:59:19;;;;;;;87.25;46.05;;;;;;;;;;10402156;28;20022;-80
2023/10/26 20:04:20;;;;;;;65.22;36.60;;;;;;;;;;10402304;28;20026;-80
2023/10/26 20:09:21;;;;;;;68.72;37.00;;;;;;;;;;10402036;28;20034;-82
2023/10/26 20:14:22;;;;;;;67.45;36.50;;;;;;;;;;10401916;28;20067;-80
2023/10/26 20:19:23;;;;;;;52.45;28.25;;;;;;;;;;10403039;28;20037;-82
2023/10/26 20:24:24;;;;;;;69.10;39.03;;;;;;;;;;10400779;28;20034;-81
2023/10/26 20:29:25;;;;;;;70.15;41.05;;;;;;;;;;10402384;28;20033;-81
2023/10/26 20:34:26;;;;;;;90.57;50.03;;;;;;;;;;10410708;28;20072;-80
2023/10/26 20:39:27;;;;;;;76.28;42.80;;;;;;;;;;10408474;28;20051;-80
2023/10/26 20:44:28;;;;;;;80.63;43.33;;;;;;;;;;10409037;28;20039;-81
2023/10/26 20:49:30;;;;;;;95.35;52.58;;;;;;;;;;10418435;28;20033;-80
2023/10/26 20:54:31;;;;;;;111.53;58.20;;;;;;;;;;10408842;28;20116;-82
2023/10/26 20:59:32;;;;;;;106.47;58.67;;;;;;;;;;10409130;28;20029;-83
2023/10/26 21:04:33;;;;;;;95.20;50.72;;;;;;;;;;10415224;28;21280;-81
2023/10/26 21:09:34;;;;;;;62.38;35.20;;;;;;;;;;10409482;28;20538;-82
2023/10/26 21:14:35;;;;;;;79.85;44.85;;;;;;;;;;10390288;28;20087;-79
2023/10/26 21:19:36;;;;;;;70.05;37.78;;;;;;;;;;10407738;28;20041;-80
2023/10/26 21:24:37;;;;;;;65.95;38.65;;;;;;;;;;10411244;28;20057;-82
2023/10/26 21:29:38;;;;;;;58.55;35.58;;;;;;;;;;10422985;28;20090;-82
2023/10/26 21:34:39;;;;;;;53.53;32.90;;;;;;;;;;10416964;28;20029;-81
2023/10/26 21:39:40;;;;;;;44.78;28.25;;;;;;;;;;10397157;28;20139;-83
2023/10/26 21:44:41;;;;;;;48.17;30.15;;;;;;;;;;10412172;28;20032;-82
2023/10/26 21:49:42;;;;;;;41.22;24.85;;;;;;;;;;10409826;28;20037;-82
2023/10/26 21:54:43;;;;;;;38.55;21.38;;;;;;;;;;10402369;28;20041;-83
2023/10/26 21:59:44;;;;;;;34.30;19.55;;;;;;;;;;10407278;28;20425;-82
2023/10/26 22:04:48;;;;;;;36.65;22.02;;;;;;;;;;10423469;28;20025;-83
2023/10/26 22:09:49;;;;;;;36.38;22.27;;;;;;;;;;10405547;28;20069;-81
2023/10/26 22:14:57;;;;;;;42.42;23.52;;;;;;;;;;10405923;28;20021;-83
2023/10/26 22:19:58;;;;;;;41.80;23.20;;;;;;;;;;10407645;28;20678;-82
2023/10/26 22:25:06;;;;;;;37.83;23.20;;;;;;;;;;10404300;28;20053;-82
2023/10/26 22:30:07;;;;;;;42.50;21.60;;;;;;;;;;10407799;28;20045;-83
2023/10/26 22:35:08;;;;;;;38.22;22.77;;;;;;;;;;10405339;28;20689;-83
2023/10/26 22:40:10;;;;;;;37.22;20.83;;;;;;;;;;10408449;28;20032;-83
2023/10/26 22:45:18;;;;;;;33.55;20.58;;;;;;;;;;10407663;28;20029;-80
2023/10/26 22:50:27;;;;;;;34.60;18.90;;;;;;;;;;10404347;28;20029;-80
2023/10/26 22:55:28;;;;;;;33.67;18.55;;;;;;;;;;10415818;28;20497;-82
2023/10/26 23:00:29;;;;;;;29.90;17.77;;;;;;;;;;10404212;28;20113;-83
2023/10/26 23:05:30;;;;;;;35.53;21.40;;;;;;;;;;10403459;28;20389;-82
2023/10/26 23:10:31;;;;;;;33.42;18.73;;;;;;;;;;10384889;28;20500;-82
2023/10/26 23:15:32;;;;;;;31.67;18.73;;;;;;;;;;10410942;28;20063;-81
2023/10/26 23:20:33;;;;;;;33.72;18.25;;;;;;;;;;10406322;28;20029;-81
2023/10/26 23:25:40;;;;;;;33.42;20.48;;;;;;;;;;10395975;28;20065;-81
2023/10/26 23:30:41;;;;;;;30.42;18.23;;;;;;;;;;10402649;28;20119;-83
2023/10/26 23:35:42;;;;;;;45.13;26.17;;;;;;;;;;10393557;28;20045;-80
2023/10/26 23:40:43;;;;;;;44.05;24.35;;;;;;;;;;10397328;28;20456;-80
2023/10/26 23:45:44;;;;;;;42.72;24.98;;;;;;;;;;10400479;28;20061;-82
2023/10/26 23:50:45;;;;;;;39.75;23.10;;;;;;;;;;10396218;28;20485;-82
2023/10/26 23:55:47;;;;;;;40.25;22.65;;;;;;;;;;10402828;28;20409;-80
